sensor_id;sensor_type;location;lat;lon;timestamp;temperature;humidity
55634;DHT22;41504;53.162;6.788;2023-12-22T00:00:58;5.10;99.90
55634;DHT22;41504;53.162;6.788;2023-12-22T00:03:24;5.20;99.90
55634;DHT22;41504;53.162;6.788;2023-12-22T00:05:50;5.20;99.90
55634;DHT22;41504;53.162;6.788;2023-12-22T00:08:15;6.50;99.90
55634;DHT22;41504;53.162;6.788;2023-12-22T00:10:41;5.40;99.90
55634;DHT22;41504;53.162;6.788;2023-12-22T00:13:07;5.50;99.90
55634;DHT22;41504;53.162;6.788;2023-12-22T00:15:32;5.70;99.90
55634;DHT22;41504;53.162;6.788;2023-12-22T00:17:58;5.80;99.90
55634;DHT22;41504;53.162;6.788;2023-12-22T00:20:24;5.90;99.90
55634;DHT22;41504;53.162;6.788;2023-12-22T00:22:49;5.90;99.90
55634;DHT22;41504;53.162;6.788;2023-12-22T00:25:15;6.10;99.90
55634;DHT22;41504;53.162;6.788;2023-12-22T00:27:41;5.80;99.90
55634;DHT22;41504;53.162;6.788;2023-12-22T00:30:07;6.10;99.90
55634;DHT22;41504;53.162;6.788;2023-12-22T00:32:33;5.90;99.90
55634;DHT22;41504;53.162;6.788;2023-12-22T00:34:58;5.70;99.90
55634;DHT22;41504;53.162;6.788;2023-12-22T00:37:24;5.60;99.90
55634;DHT22;41504;53.162;6.788;2023-12-22T00:39:50;5.60;99.90
55634;DHT22;41504;53.162;6.788;2023-12-22T00:42:15;5.50;99.90
55634;DHT22;41504;53.162;6.788;2023-12-22T00:44:41;5.50;99.90
55634;DHT22;41504;53.162;6.788;2023-12-22T00:47:07;5.60;99.90
55634;DHT22;41504;53.162;6.788;2023-12-22T00:49:33;5.80;99.90
55634;DHT22;41504;53.162;6.788;2023-12-22T00:51:59;5.70;99.90
55634;DHT22;41504;53.162;6.788;2023-12-22T00:54:24;5.40;99.90
55634;DHT22;41504;53.162;6.788;2023-12-22T00:56:50;5.20;99.90
55634;DHT22;41504;53.162;6.788;2023-12-22T00:59:16;5.10;99.90
55634;DHT22;41504;53.162;6.788;2023-12-22T01:01:41;5.30;99.90
55634;DHT22;41504;53.162;6.788;2023-12-22T01:04:07;5.30;99.90
55634;DHT22;41504;53.162;6.788;2023-12-22T01:06:37;5.30;99.90
55634;DHT22;41504;53.162;6.788;2023-12-22T01:09:03;5.40;99.90
55634;DHT22;41504;53.162;6.788;2023-12-22T01:11:29;5.40;99.90
55634;DHT22;41504;53.162;6.788;2023-12-22T01:13:55;5.50;99.90
55634;DHT22;41504;53.162;6.788;2023-12-22T01:16:21;5.50;99.90
55634;DHT22;41504;53.162;6.788;2023-12-22T01:18:50;5.50;99.90
55634;DHT22;41504;53.162;6.788;2023-12-22T01:21:16;5.50;99.90
55634;DHT22;41504;53.162;6.788;2023-12-22T01:23:42;5.60;99.90
55634;DHT22;41504;53.162;6.788;2023-12-22T01:26:08;6.00;99.90
55634;DHT22;41504;53.162;6.788;2023-12-22T01:28:34;5.70;99.90
55634;DHT22;41504;53.162;6.788;2023-12-22T01:31:01;5.70;99.90
55634;DHT22;41504;53.162;6.788;2023-12-22T01:33:26;5.70;99.90
55634;DHT22;41504;53.162;6.788;2023-12-22T01:35:55;5.80;99.90
55634;DHT22;41504;53.162;6.788;2023-12-22T01:38:21;5.80;99.90
55634;DHT22;41504;53.162;6.788;2023-12-22T01:40:47;5.80;99.90
55634;DHT22;41504;53.162;6.788;2023-12-22T01:43:12;5.80;99.90
55634;DHT22;41504;53.162;6.788;2023-12-22T01:45:47;5.80;99.90
55634;DHT22;41504;53.162;6.788;2023-12-22T01:48:14;5.80;99.90
55634;DHT22;41504;53.162;6.788;2023-12-22T01:50:41;5.80;99.90
55634;DHT22;41504;53.162;6.788;2023-12-22T01:53:07;5.80;99.90
55634;DHT22;41504;53.162;6.788;2023-12-22T01:55:33;5.90;99.90
55634;DHT22;41504;53.162;6.788;2023-12-22T01:57:59;6.00;99.90
55634;DHT22;41504;53.162;6.788;2023-12-22T02:00:25;6.00;99.90
55634;DHT22;41504;53.162;6.788;2023-12-22T02:02:52;6.00;99.90
55634;DHT22;41504;53.162;6.788;2023-12-22T02:05:18;5.90;99.90
55634;DHT22;41504;53.162;6.788;2023-12-22T02:07:44;5.90;99.90
55634;DHT22;41504;53.162;6.788;2023-12-22T02:10:11;5.90;99.90
55634;DHT22;41504;53.162;6.788;2023-12-22T02:12:37;5.80;99.90
55634;DHT22;41504;53.162;6.788;2023-12-22T02:15:03;5.90;99.90
55634;DHT22;41504;53.162;6.788;2023-12-22T02:20:00;5.80;99.90
55634;DHT22;41504;53.162;6.788;2023-12-22T02:22:28;5.90;99.90
55634;DHT22;41504;53.162;6.788;2023-12-22T02:24:54;5.80;99.90
55634;DHT22;41504;53.162;6.788;2023-12-22T02:27:34;5.90;99.90
55634;DHT22;41504;53.162;6.788;2023-12-22T02:30:08;5.80;99.90
55634;DHT22;41504;53.162;6.788;2023-12-22T02:32:41;5.80;99.90
55634;DHT22;41504;53.162;6.788;2023-12-22T02:35:11;5.70;99.90
55634;DHT22;41504;53.162;6.788;2023-12-22T02:37:40;5.80;99.90
55634;DHT22;41504;53.162;6.788;2023-12-22T02:40:07;5.80;99.90
55634;DHT22;41504;53.162;6.788;2023-12-22T02:42:36;5.70;99.90
55634;DHT22;41504;53.162;6.788;2023-12-22T02:45:03;5.70;99.90
55634;DHT22;41504;53.162;6.788;2023-12-22T02:47:29;5.70;99.90
55634;DHT22;41504;53.162;6.788;2023-12-22T02:49:57;5.60;99.90
55634;DHT22;41504;53.162;6.788;2023-12-22T02:52:23;5.60;99.90
55634;DHT22;41504;53.162;6.788;2023-12-22T02:54:49;5.60;99.90
55634;DHT22;41504;53.162;6.788;2023-12-22T02:57:14;5.60;99.90
55634;DHT22;41504;53.162;6.788;2023-12-22T02:59:40;5.60;99.90
55634;DHT22;41504;53.162;6.788;2023-12-22T03:02:06;5.60;99.90
55634;DHT22;41504;53.162;6.788;2023-12-22T03:04:32;5.60;99.90
55634;DHT22;41504;53.162;6.788;2023-12-22T03:06:57;5.90;99.90
55634;DHT22;41504;53.162;6.788;2023-12-22T03:09:23;5.60;99.90
55634;DHT22;41504;53.162;6.788;2023-12-22T03:11:49;5.80;99.90
55634;DHT22;41504;53.162;6.788;2023-12-22T03:14:17;5.80;99.90
55634;DHT22;41504;53.162;6.788;2023-12-22T03:16:42;5.70;99.90
55634;DHT22;41504;53.162;6.788;2023-12-22T03:19:08;6.10;99.90
55634;DHT22;41504;53.162;6.788;2023-12-22T03:21:34;5.60;99.90
55634;DHT22;41504;53.162;6.788;2023-12-22T03:24:00;5.50;99.90
55634;DHT22;41504;53.162;6.788;2023-12-22T03:26:28;5.40;99.90
55634;DHT22;41504;53.162;6.788;2023-12-22T03:28:54;5.30;99.90
55634;DHT22;41504;53.162;6.788;2023-12-22T03:31:20;5.20;99.90
55634;DHT22;41504;53.162;6.788;2023-12-22T03:33:45;5.10;99.90
55634;DHT22;41504;53.162;6.788;2023-12-22T03:36:11;5.10;99.90
55634;DHT22;41504;53.162;6.788;2023-12-22T03:38:37;5.10;99.90
55634;DHT22;41504;53.162;6.788;2023-12-22T03:41:03;5.10;99.90
55634;DHT22;41504;53.162;6.788;2023-12-22T03:43:28;5.00;99.90
55634;DHT22;41504;53.162;6.788;2023-12-22T03:45:56;5.00;99.90
55634;DHT22;41504;53.162;6.788;2023-12-22T03:48:24;5.20;99.90
55634;DHT22;41504;53.162;6.788;2023-12-22T03:50:50;5.10;99.90
55634;DHT22;41504;53.162;6.788;2023-12-22T03:53:16;5.20;99.90
55634;DHT22;41504;53.162;6.788;2023-12-22T03:55:42;5.50;99.90
55634;DHT22;41504;53.162;6.788;2023-12-22T03:58:07;5.30;99.90
55634;DHT22;41504;53.162;6.788;2023-12-22T04:00:33;5.40;99.90
55634;DHT22;41504;53.162;6.788;2023-12-22T04:03:00;5.40;99.90
55634;DHT22;41504;53.162;6.788;2023-12-22T04:05:25;5.50;99.90
55634;DHT22;41504;53.162;6.788;2023-12-22T04:07:51;5.60;99.90
55634;DHT22;41504;53.162;6.788;2023-12-22T04:10:17;5.70;99.90
55634;DHT22;41504;53.162;6.788;2023-12-22T04:12:43;5.90;99.90
55634;DHT22;41504;53.162;6.788;2023-12-22T04:15:09;6.00;99.90
55634;DHT22;41504;53.162;6.788;2023-12-22T04:17:35;6.00;99.90
55634;DHT22;41504;53.162;6.788;2023-12-22T04:20:01;5.90;99.90
55634;DHT22;41504;53.162;6.788;2023-12-22T04:22:26;5.80;99.90
55634;DHT22;41504;53.162;6.788;2023-12-22T04:24:55;5.60;99.90
55634;DHT22;41504;53.162;6.788;2023-12-22T04:27:20;5.60;99.90
55634;DHT22;41504;53.162;6.788;2023-12-22T04:29:46;6.20;99.90
55634;DHT22;41504;53.162;6.788;2023-12-22T04:32:11;5.60;99.90
55634;DHT22;41504;53.162;6.788;2023-12-22T04:34:37;5.80;99.90
55634;DHT22;41504;53.162;6.788;2023-12-22T04:37:03;5.60;99.90
55634;DHT22;41504;53.162;6.788;2023-12-22T04:39:28;5.70;99.90
55634;DHT22;41504;53.162;6.788;2023-12-22T04:41:54;5.70;99.90
55634;DHT22;41504;53.162;6.788;2023-12-22T04:44:20;5.60;99.90
55634;DHT22;41504;53.162;6.788;2023-12-22T04:46:46;5.70;99.90
55634;DHT22;41504;53.162;6.788;2023-12-22T04:49:11;5.80;99.90
55634;DHT22;41504;53.162;6.788;2023-12-22T04:51:37;5.90;99.90
55634;DHT22;41504;53.162;6.788;2023-12-22T04:54:03;6.00;99.90
55634;DHT22;41504;53.162;6.788;2023-12-22T04:56:29;6.10;99.90
55634;DHT22;41504;53.162;6.788;2023-12-22T04:58:54;6.20;99.90
55634;DHT22;41504;53.162;6.788;2023-12-22T05:01:20;6.30;99.90
55634;DHT22;41504;53.162;6.788;2023-12-22T05:03:46;6.40;99.90
55634;DHT22;41504;53.162;6.788;2023-12-22T05:06:12;6.40;99.90
55634;DHT22;41504;53.162;6.788;2023-12-22T05:08:38;6.40;99.90
55634;DHT22;41504;53.162;6.788;2023-12-22T05:11:03;6.50;99.90
55634;DHT22;41504;53.162;6.788;2023-12-22T05:13:29;6.50;99.90
55634;DHT22;41504;53.162;6.788;2023-12-22T05:15:55;6.50;99.90
55634;DHT22;41504;53.162;6.788;2023-12-22T05:18:20;6.50;99.90
55634;DHT22;41504;53.162;6.788;2023-12-22T05:20:46;6.50;99.90
55634;DHT22;41504;53.162;6.788;2023-12-22T05:23:12;6.50;99.90
55634;DHT22;41504;53.162;6.788;2023-12-22T05:25:38;6.50;99.90
55634;DHT22;41504;53.162;6.788;2023-12-22T05:28:03;6.60;99.90
55634;DHT22;41504;53.162;6.788;2023-12-22T05:30:32;6.60;99.90
55634;DHT22;41504;53.162;6.788;2023-12-22T05:32:58;6.60;99.90
55634;DHT22;41504;53.162;6.788;2023-12-22T05:35:24;6.70;99.90
55634;DHT22;41504;53.162;6.788;2023-12-22T05:37:49;6.80;99.90
55634;DHT22;41504;53.162;6.788;2023-12-22T05:40:16;6.90;99.90
55634;DHT22;41504;53.162;6.788;2023-12-22T05:42:41;6.80;99.90
55634;DHT22;41504;53.162;6.788;2023-12-22T05:45:07;6.80;99.90
55634;DHT22;41504;53.162;6.788;2023-12-22T05:47:33;6.70;99.90
55634;DHT22;41504;53.162;6.788;2023-12-22T05:49:59;6.70;99.90
55634;DHT22;41504;53.162;6.788;2023-12-22T05:52:25;6.70;99.90
55634;DHT22;41504;53.162;6.788;2023-12-22T05:54:50;6.70;99.90
55634;DHT22;41504;53.162;6.788;2023-12-22T05:57:16;6.70;99.90
55634;DHT22;41504;53.162;6.788;2023-12-22T05:59:42;6.70;99.90
55634;DHT22;41504;53.162;6.788;2023-12-22T06:02:08;6.70;99.90
55634;DHT22;41504;53.162;6.788;2023-12-22T06:04:34;6.70;99.90
55634;DHT22;41504;53.162;6.788;2023-12-22T06:07:00;6.70;99.90
55634;DHT22;41504;53.162;6.788;2023-12-22T06:09:26;6.70;99.90
55634;DHT22;41504;53.162;6.788;2023-12-22T06:11:52;6.70;99.90
55634;DHT22;41504;53.162;6.788;2023-12-22T06:14:20;6.70;99.90
55634;DHT22;41504;53.162;6.788;2023-12-22T06:16:46;6.80;99.90
55634;DHT22;41504;53.162;6.788;2023-12-22T06:19:12;6.80;99.90
55634;DHT22;41504;53.162;6.788;2023-12-22T06:21:42;6.80;99.90
55634;DHT22;41504;53.162;6.788;2023-12-22T06:24:07;6.80;99.90
55634;DHT22;41504;53.162;6.788;2023-12-22T06:26:34;6.80;99.90
55634;DHT22;41504;53.162;6.788;2023-12-22T06:28:59;6.80;99.90
55634;DHT22;41504;53.162;6.788;2023-12-22T06:31:25;6.80;99.90
55634;DHT22;41504;53.162;6.788;2023-12-22T06:33:51;6.80;99.90
55634;DHT22;41504;53.162;6.788;2023-12-22T06:36:24;6.80;99.90
55634;DHT22;41504;53.162;6.788;2023-12-22T06:38:51;6.80;99.90
55634;DHT22;41504;53.162;6.788;2023-12-22T06:41:23;6.80;99.90
55634;DHT22;41504;53.162;6.788;2023-12-22T06:43:50;6.80;99.90
55634;DHT22;41504;53.162;6.788;2023-12-22T06:46:20;6.80;99.90
55634;DHT22;41504;53.162;6.788;2023-12-22T06:48:48;6.80;99.90
55634;DHT22;41504;53.162;6.788;2023-12-22T06:51:27;6.80;99.90
55634;DHT22;41504;53.162;6.788;2023-12-22T06:53:54;6.70;99.90
55634;DHT22;41504;53.162;6.788;2023-12-22T06:56:24;6.10;99.90
55634;DHT22;41504;53.162;6.788;2023-12-22T06:58:52;5.60;99.90
55634;DHT22;41504;53.162;6.788;2023-12-22T07:03:50;5.30;99.90
55634;DHT22;41504;53.162;6.788;2023-12-22T07:06:24;5.70;99.90
55634;DHT22;41504;53.162;6.788;2023-12-22T07:11:42;5.40;99.90
55634;DHT22;41504;53.162;6.788;2023-12-22T07:14:08;5.50;99.90
55634;DHT22;41504;53.162;6.788;2023-12-22T07:16:35;5.50;99.90
55634;DHT22;41504;53.162;6.788;2023-12-22T07:19:01;5.70;99.90
55634;DHT22;41504;53.162;6.788;2023-12-22T07:21:27;5.60;99.90
55634;DHT22;41504;53.162;6.788;2023-12-22T07:23:53;5.60;99.90
55634;DHT22;41504;53.162;6.788;2023-12-22T07:26:18;5.60;99.90
55634;DHT22;41504;53.162;6.788;2023-12-22T07:28:44;5.60;99.90
55634;DHT22;41504;53.162;6.788;2023-12-22T07:31:19;5.70;99.90
55634;DHT22;41504;53.162;6.788;2023-12-22T07:33:45;5.80;99.90
55634;DHT22;41504;53.162;6.788;2023-12-22T07:36:10;5.80;99.90
55634;DHT22;41504;53.162;6.788;2023-12-22T07:38:37;6.00;99.90
55634;DHT22;41504;53.162;6.788;2023-12-22T07:41:05;5.90;99.90
55634;DHT22;41504;53.162;6.788;2023-12-22T07:43:30;5.80;99.90
55634;DHT22;41504;53.162;6.788;2023-12-22T07:45:56;5.70;99.90
55634;DHT22;41504;53.162;6.788;2023-12-22T07:48:22;5.60;99.90
55634;DHT22;41504;53.162;6.788;2023-12-22T07:50:50;5.60;99.90
55634;DHT22;41504;53.162;6.788;2023-12-22T07:53:16;5.60;99.90
55634;DHT22;41504;53.162;6.788;2023-12-22T07:55:43;5.50;99.90
55634;DHT22;41504;53.162;6.788;2023-12-22T07:58:09;5.50;99.90
55634;DHT22;41504;53.162;6.788;2023-12-22T08:00:34;5.50;99.90
55634;DHT22;41504;53.162;6.788;2023-12-22T08:03:00;5.50;99.90
55634;DHT22;41504;53.162;6.788;2023-12-22T08:05:26;5.70;99.90
55634;DHT22;41504;53.162;6.788;2023-12-22T08:07:52;5.50;99.90
55634;DHT22;41504;53.162;6.788;2023-12-22T08:10:24;5.40;99.90
55634;DHT22;41504;53.162;6.788;2023-12-22T08:12:49;5.40;99.90
55634;DHT22;41504;53.162;6.788;2023-12-22T08:15:15;5.50;99.90
55634;DHT22;41504;53.162;6.788;2023-12-22T08:18:02;5.50;99.90
55634;DHT22;41504;53.162;6.788;2023-12-22T08:20:28;5.50;99.90
55634;DHT22;41504;53.162;6.788;2023-12-22T08:22:54;5.60;99.90
55634;DHT22;41504;53.162;6.788;2023-12-22T08:25:20;5.50;99.90
55634;DHT22;41504;53.162;6.788;2023-12-22T08:27:46;5.50;99.90
55634;DHT22;41504;53.162;6.788;2023-12-22T08:30:12;5.50;99.90
55634;DHT22;41504;53.162;6.788;2023-12-22T08:32:38;5.50;99.90
55634;DHT22;41504;53.162;6.788;2023-12-22T08:35:04;5.80;99.90
55634;DHT22;41504;53.162;6.788;2023-12-22T08:37:30;5.60;99.90
55634;DHT22;41504;53.162;6.788;2023-12-22T08:39:56;5.60;99.90
55634;DHT22;41504;53.162;6.788;2023-12-22T08:42:26;5.70;99.90
55634;DHT22;41504;53.162;6.788;2023-12-22T08:44:53;5.70;99.90
55634;DHT22;41504;53.162;6.788;2023-12-22T08:47:19;5.70;99.90
55634;DHT22;41504;53.162;6.788;2023-12-22T08:49:45;5.70;99.90
55634;DHT22;41504;53.162;6.788;2023-12-22T08:52:10;5.80;99.90
55634;DHT22;41504;53.162;6.788;2023-12-22T08:54:36;5.80;99.90
55634;DHT22;41504;53.162;6.788;2023-12-22T08:57:02;5.80;99.90
55634;DHT22;41504;53.162;6.788;2023-12-22T08:59:28;5.90;99.90
55634;DHT22;41504;53.162;6.788;2023-12-22T09:01:54;6.00;99.90
55634;DHT22;41504;53.162;6.788;2023-12-22T09:04:19;6.10;99.90
55634;DHT22;41504;53.162;6.788;2023-12-22T09:06:51;6.20;99.90
55634;DHT22;41504;53.162;6.788;2023-12-22T09:09:17;6.30;99.90
55634;DHT22;41504;53.162;6.788;2023-12-22T09:11:43;6.40;99.90
55634;DHT22;41504;53.162;6.788;2023-12-22T09:14:09;6.40;99.90
55634;DHT22;41504;53.162;6.788;2023-12-22T09:16:35;6.50;99.90
55634;DHT22;41504;53.162;6.788;2023-12-22T09:19:01;6.50;99.90
55634;DHT22;41504;53.162;6.788;2023-12-22T09:21:27;6.50;99.90
55634;DHT22;41504;53.162;6.788;2023-12-22T09:23:55;6.50;99.90
55634;DHT22;41504;53.162;6.788;2023-12-22T09:26:21;6.50;99.90
55634;DHT22;41504;53.162;6.788;2023-12-22T09:28:47;6.50;99.90
55634;DHT22;41504;53.162;6.788;2023-12-22T09:31:13;6.60;99.90
55634;DHT22;41504;53.162;6.788;2023-12-22T09:33:40;6.50;99.90
55634;DHT22;41504;53.162;6.788;2023-12-22T09:36:06;6.60;99.90
55634;DHT22;41504;53.162;6.788;2023-12-22T09:38:32;6.50;99.90
55634;DHT22;41504;53.162;6.788;2023-12-22T09:41:01;6.50;99.90
55634;DHT22;41504;53.162;6.788;2023-12-22T09:43:35;6.50;99.90
55634;DHT22;41504;53.162;6.788;2023-12-22T09:46:05;6.60;99.90
55634;DHT22;41504;53.162;6.788;2023-12-22T09:48:36;6.60;99.90
55634;DHT22;41504;53.162;6.788;2023-12-22T09:51:05;6.60;99.90
55634;DHT22;41504;53.162;6.788;2023-12-22T09:53:32;6.70;99.90
55634;DHT22;41504;53.162;6.788;2023-12-22T09:55:59;6.70;99.90
55634;DHT22;41504;53.162;6.788;2023-12-22T09:58:25;6.70;99.90
55634;DHT22;41504;53.162;6.788;2023-12-22T10:00:55;6.70;99.90
55634;DHT22;41504;53.162;6.788;2023-12-22T10:03:24;6.80;99.90
55634;DHT22;41504;53.162;6.788;2023-12-22T10:05:51;6.80;99.90
55634;DHT22;41504;53.162;6.788;2023-12-22T10:08:18;7.00;99.90
55634;DHT22;41504;53.162;6.788;2023-12-22T10:10:47;6.90;99.90
55634;DHT22;41504;53.162;6.788;2023-12-22T10:13:13;7.00;99.90
55634;DHT22;41504;53.162;6.788;2023-12-22T10:15:39;7.00;99.90
55634;DHT22;41504;53.162;6.788;2023-12-22T10:18:11;7.00;99.90
55634;DHT22;41504;53.162;6.788;2023-12-22T10:20:38;7.00;99.90
55634;DHT22;41504;53.162;6.788;2023-12-22T10:23:04;7.10;99.90
55634;DHT22;41504;53.162;6.788;2023-12-22T10:25:31;7.10;99.90
55634;DHT22;41504;53.162;6.788;2023-12-22T10:27:58;7.10;99.90
55634;DHT22;41504;53.162;6.788;2023-12-22T10:30:24;7.10;99.90
55634;DHT22;41504;53.162;6.788;2023-12-22T10:32:50;7.10;99.90
55634;DHT22;41504;53.162;6.788;2023-12-22T10:35:17;7.10;99.90
55634;DHT22;41504;53.162;6.788;2023-12-22T10:37:45;7.10;99.90
55634;DHT22;41504;53.162;6.788;2023-12-22T10:40:11;7.10;99.90
55634;DHT22;41504;53.162;6.788;2023-12-22T10:42:37;7.10;99.90
55634;DHT22;41504;53.162;6.788;2023-12-22T10:45:03;7.10;99.90
55634;DHT22;41504;53.162;6.788;2023-12-22T10:47:29;7.10;99.90
55634;DHT22;41504;53.162;6.788;2023-12-22T10:49:55;7.10;99.90
55634;DHT22;41504;53.162;6.788;2023-12-22T10:52:21;7.10;99.90
55634;DHT22;41504;53.162;6.788;2023-12-22T10:54:48;7.10;99.90
55634;DHT22;41504;53.162;6.788;2023-12-22T10:57:17;7.10;99.90
55634;DHT22;41504;53.162;6.788;2023-12-22T10:59:45;7.10;99.90
55634;DHT22;41504;53.162;6.788;2023-12-22T11:02:19;7.10;99.90
55634;DHT22;41504;53.162;6.788;2023-12-22T11:07:23;7.10;99.90
55634;DHT22;41504;53.162;6.788;2023-12-22T11:09:51;7.10;99.90
55634;DHT22;41504;53.162;6.788;2023-12-22T11:12:21;7.10;99.90
55634;DHT22;41504;53.162;6.788;2023-12-22T11:14:49;7.10;99.90
55634;DHT22;41504;53.162;6.788;2023-12-22T11:17:26;7.10;99.90
55634;DHT22;41504;53.162;6.788;2023-12-22T11:19:54;7.10;99.90
55634;DHT22;41504;53.162;6.788;2023-12-22T11:22:21;7.10;99.90
55634;DHT22;41504;53.162;6.788;2023-12-22T11:24:48;7.20;99.90
55634;DHT22;41504;53.162;6.788;2023-12-22T11:27:19;7.20;99.90
55634;DHT22;41504;53.162;6.788;2023-12-22T11:29:50;7.20;99.90
55634;DHT22;41504;53.162;6.788;2023-12-22T11:32:18;7.30;99.90
55634;DHT22;41504;53.162;6.788;2023-12-22T11:34:45;7.70;99.90
55634;DHT22;41504;53.162;6.788;2023-12-22T11:37:13;7.30;99.90
55634;DHT22;41504;53.162;6.788;2023-12-22T11:39:45;7.30;99.90
55634;DHT22;41504;53.162;6.788;2023-12-22T11:42:29;7.30;99.90
55634;DHT22;41504;53.162;6.788;2023-12-22T11:44:57;7.40;99.90
55634;DHT22;41504;53.162;6.788;2023-12-22T11:47:24;7.40;99.90
55634;DHT22;41504;53.162;6.788;2023-12-22T11:49:50;7.40;99.90
55634;DHT22;41504;53.162;6.788;2023-12-22T11:52:25;7.40;99.90
55634;DHT22;41504;53.162;6.788;2023-12-22T11:54:55;7.40;99.90
55634;DHT22;41504;53.162;6.788;2023-12-22T12:02:32;7.50;99.90
55634;DHT22;41504;53.162;6.788;2023-12-22T12:04:58;7.50;99.90
55634;DHT22;41504;53.162;6.788;2023-12-22T12:07:44;7.50;99.90
55634;DHT22;41504;53.162;6.788;2023-12-22T12:13:11;7.60;99.90
55634;DHT22;41504;53.162;6.788;2023-12-22T12:15:37;7.60;99.90
55634;DHT22;41504;53.162;6.788;2023-12-22T12:18:04;7.60;99.90
55634;DHT22;41504;53.162;6.788;2023-12-22T12:20:33;7.50;99.90
55634;DHT22;41504;53.162;6.788;2023-12-22T12:23:01;7.50;99.90
55634;DHT22;41504;53.162;6.788;2023-12-22T12:25:32;7.60;99.90
55634;DHT22;41504;53.162;6.788;2023-12-22T12:28:06;7.50;99.90
55634;DHT22;41504;53.162;6.788;2023-12-22T12:30:32;7.50;99.90
55634;DHT22;41504;53.162;6.788;2023-12-22T12:32:59;7.60;99.90
55634;DHT22;41504;53.162;6.788;2023-12-22T12:35:31;7.60;99.90
55634;DHT22;41504;53.162;6.788;2023-12-22T12:37:59;7.50;99.90
55634;DHT22;41504;53.162;6.788;2023-12-22T12:40:25;8.00;99.90
55634;DHT22;41504;53.162;6.788;2023-12-22T12:42:54;7.50;99.90
55634;DHT22;41504;53.162;6.788;2023-12-22T12:45:23;7.60;99.90
55634;DHT22;41504;53.162;6.788;2023-12-22T12:48:04;7.60;99.90
55634;DHT22;41504;53.162;6.788;2023-12-22T12:50:30;7.60;99.90
55634;DHT22;41504;53.162;6.788;2023-12-22T12:52:57;7.50;99.90
55634;DHT22;41504;53.162;6.788;2023-12-22T12:55:24;7.60;99.90
55634;DHT22;41504;53.162;6.788;2023-12-22T12:57:54;7.80;99.90
55634;DHT22;41504;53.162;6.788;2023-12-22T13:03:11;7.60;99.90
55634;DHT22;41504;53.162;6.788;2023-12-22T13:05:37;7.60;99.90
55634;DHT22;41504;53.162;6.788;2023-12-22T13:08:12;7.60;99.90
55634;DHT22;41504;53.162;6.788;2023-12-22T13:10:39;7.50;99.90
55634;DHT22;41504;53.162;6.788;2023-12-22T13:13:05;7.50;99.90
55634;DHT22;41504;53.162;6.788;2023-12-22T13:15:31;7.50;99.90
55634;DHT22;41504;53.162;6.788;2023-12-22T13:17:58;7.60;99.90
55634;DHT22;41504;53.162;6.788;2023-12-22T13:20:24;7.50;99.90
55634;DHT22;41504;53.162;6.788;2023-12-22T13:22:50;7.50;99.90
55634;DHT22;41504;53.162;6.788;2023-12-22T13:25:16;7.40;99.90
55634;DHT22;41504;53.162;6.788;2023-12-22T13:27:46;7.40;99.90
55634;DHT22;41504;53.162;6.788;2023-12-22T13:30:13;7.70;99.90
55634;DHT22;41504;53.162;6.788;2023-12-22T13:32:39;7.40;99.90
55634;DHT22;41504;53.162;6.788;2023-12-22T13:35:05;7.40;99.90
55634;DHT22;41504;53.162;6.788;2023-12-22T13:37:31;7.40;99.90
55634;DHT22;41504;53.162;6.788;2023-12-22T13:39:57;7.30;99.90
55634;DHT22;41504;53.162;6.788;2023-12-22T13:42:23;7.30;99.90
55634;DHT22;41504;53.162;6.788;2023-12-22T13:44:50;7.20;99.90
55634;DHT22;41504;53.162;6.788;2023-12-22T13:47:18;7.50;99.90
55634;DHT22;41504;53.162;6.788;2023-12-22T13:49:48;7.30;99.90
55634;DHT22;41504;53.162;6.788;2023-12-22T13:52:27;7.40;99.90
55634;DHT22;41504;53.162;6.788;2023-12-22T13:54:53;7.50;99.90
55634;DHT22;41504;53.162;6.788;2023-12-22T13:57:22;7.00;99.90
55634;DHT22;41504;53.162;6.788;2023-12-22T13:59:48;7.10;99.90
55634;DHT22;41504;53.162;6.788;2023-12-22T14:02:14;7.00;99.90
55634;DHT22;41504;53.162;6.788;2023-12-22T14:04:40;7.00;99.90
55634;DHT22;41504;53.162;6.788;2023-12-22T14:07:06;7.00;99.90
55634;DHT22;41504;53.162;6.788;2023-12-22T14:09:32;6.90;99.90
55634;DHT22;41504;53.162;6.788;2023-12-22T14:11:59;7.00;99.90
55634;DHT22;41504;53.162;6.788;2023-12-22T14:14:25;7.20;99.90
55634;DHT22;41504;53.162;6.788;2023-12-22T14:16:51;7.00;99.90
55634;DHT22;41504;53.162;6.788;2023-12-22T14:19:16;7.60;99.90
55634;DHT22;41504;53.162;6.788;2023-12-22T14:21:42;7.00;99.90
55634;DHT22;41504;53.162;6.788;2023-12-22T14:24:08;7.20;99.90
55634;DHT22;41504;53.162;6.788;2023-12-22T14:26:52;7.00;99.90
55634;DHT22;41504;53.162;6.788;2023-12-22T14:29:18;7.10;99.90
55634;DHT22;41504;53.162;6.788;2023-12-22T14:31:43;7.10;99.90
55634;DHT22;41504;53.162;6.788;2023-12-22T14:34:12;7.00;99.90
55634;DHT22;41504;53.162;6.788;2023-12-22T14:36:38;6.40;99.90
55634;DHT22;41504;53.162;6.788;2023-12-22T14:39:04;7.20;99.90
55634;DHT22;41504;53.162;6.788;2023-12-22T14:41:30;7.00;99.90
55634;DHT22;41504;53.162;6.788;2023-12-22T14:43:56;7.10;99.90
55634;DHT22;41504;53.162;6.788;2023-12-22T14:46:22;7.00;99.90
55634;DHT22;41504;53.162;6.788;2023-12-22T14:48:47;7.10;99.90
55634;DHT22;41504;53.162;6.788;2023-12-22T14:51:13;7.50;99.90
55634;DHT22;41504;53.162;6.788;2023-12-22T14:53:39;7.20;99.90
55634;DHT22;41504;53.162;6.788;2023-12-22T14:56:05;7.00;99.90
55634;DHT22;41504;53.162;6.788;2023-12-22T14:58:32;7.00;99.90
55634;DHT22;41504;53.162;6.788;2023-12-22T15:00:58;7.00;99.90
55634;DHT22;41504;53.162;6.788;2023-12-22T15:03:23;7.00;99.90
55634;DHT22;41504;53.162;6.788;2023-12-22T15:05:49;6.90;99.90
55634;DHT22;41504;53.162;6.788;2023-12-22T15:08:15;6.90;99.90
55634;DHT22;41504;53.162;6.788;2023-12-22T15:10:40;6.90;99.90
55634;DHT22;41504;53.162;6.788;2023-12-22T15:13:06;6.90;99.90
55634;DHT22;41504;53.162;6.788;2023-12-22T15:15:32;7.00;99.90
55634;DHT22;41504;53.162;6.788;2023-12-22T15:17:57;6.90;99.90
55634;DHT22;41504;53.162;6.788;2023-12-22T15:20:23;6.90;99.90
55634;DHT22;41504;53.162;6.788;2023-12-22T15:22:50;6.90;99.90
55634;DHT22;41504;53.162;6.788;2023-12-22T15:25:16;6.90;99.90
55634;DHT22;41504;53.162;6.788;2023-12-22T15:27:41;6.90;99.90
55634;DHT22;41504;53.162;6.788;2023-12-22T15:30:07;6.90;99.90
55634;DHT22;41504;53.162;6.788;2023-12-22T15:32:33;7.00;99.90
55634;DHT22;41504;53.162;6.788;2023-12-22T15:34:59;7.00;99.90
55634;DHT22;41504;53.162;6.788;2023-12-22T15:37:24;7.40;99.90
55634;DHT22;41504;53.162;6.788;2023-12-22T15:39:50;6.90;99.90
55634;DHT22;41504;53.162;6.788;2023-12-22T15:42:16;7.40;99.90
55634;DHT22;41504;53.162;6.788;2023-12-22T15:44:41;7.00;99.90
55634;DHT22;41504;53.162;6.788;2023-12-22T15:47:07;6.90;99.90
55634;DHT22;41504;53.162;6.788;2023-12-22T15:49:37;7.40;99.90
55634;DHT22;41504;53.162;6.788;2023-12-22T15:52:03;7.50;99.90
55634;DHT22;41504;53.162;6.788;2023-12-22T15:54:29;7.10;99.90
55634;DHT22;41504;53.162;6.788;2023-12-22T15:56:54;7.40;99.90
55634;DHT22;41504;53.162;6.788;2023-12-22T15:59:21;7.00;99.90
55634;DHT22;41504;53.162;6.788;2023-12-22T16:01:51;7.10;99.90
55634;DHT22;41504;53.162;6.788;2023-12-22T16:04:16;7.10;99.90